Time;durP1;ratioP1;P1;durP2;ratioP2;P2;SDS_P1;SDS_P2;PMS_P1;PMS_P2;Temp;Humidity;BMP_temperature;BMP_pressure;BME280_temperature;BME280_humidity;BME280_pressure;Samples;Min_cycle;Max_cycle;Signal;HPM_P1;HPM_P2
2023/05/10 00:00:39;;;;;;;3.95;3.50;;;;;;;;;;5018951;28;20038;-79
2023/05/10 00:03:23;;;;;;;9.15;4.93;;;;;;;;;;5013616;28;20042;-79
2023/05/10 00:06:09;;;;;;;8.05;4.25;;;;;;;;;;5013490;28;20046;-80
2023/05/10 00:08:54;;;;;;;12.40;6.18;;;;;;;;;;5016931;28;20473;-80
2023/05/10 00:11:40;;;;;;;12.55;7.32;;;;;;;;;;5016488;28;20050;-82
2023/05/10 00:14:25;;;;;;;17.25;8.43;;;;;;;;;;5022851;28;20046;-80
2023/05/10 00:17:10;;;;;;;10.30;5.15;;;;;;;;;;5017106;28;20050;-80
2023/05/10 00:19:56;;;;;;;8.50;5.30;;;;;;;;;;5017186;28;20403;-80
2023/05/10 00:22:41;;;;;;;11.05;6.13;;;;;;;;;;5017162;28;20042;-83
2023/05/10 00:25:27;;;;;;;9.77;4.43;;;;;;;;;;5016448;28;20061;-82
2023/05/10 00:28:12;;;;;;;5.82;3.53;;;;;;;;;;5017130;28;20038;-82
2023/05/10 00:30:58;;;;;;;10.10;5.15;;;;;;;;;;5017081;28;20050;-79
2023/05/10 00:33:44;;;;;;;6.55;4.72;;;;;;;;;;5017329;28;20045;-82
2023/05/10 00:36:31;;;;;;;8.40;5.70;;;;;;;;;;5016977;28;20038;-82
2023/05/10 00:39:16;;;;;;;6.88;3.50;;;;;;;;;;5017003;28;20042;-79
2023/05/10 00:42:01;;;;;;;6.13;3.35;;;;;;;;;;5021897;28;20038;-82
2023/05/10 00:44:47;;;;;;;11.25;5.50;;;;;;;;;;5021129;28;20045;-82
2023/05/10 00:47:33;;;;;;;8.27;4.97;;;;;;;;;;5022429;28;20046;-82
2023/05/10 00:50:19;;;;;;;9.52;4.18;;;;;;;;;;5022447;28;20395;-79
2023/05/10 00:53:07;;;;;;;8.32;4.22;;;;;;;;;;5016407;28;20049;-79
2023/05/10 00:55:52;;;;;;;7.38;3.42;;;;;;;;;;5022180;28;20491;-79
2023/05/10 00:58:39;;;;;;;5.65;3.35;;;;;;;;;;5022355;28;20058;-80
2023/05/10 01:01:25;;;;;;;8.40;3.53;;;;;;;;;;5016469;28;20407;-82
2023/05/10 01:04:12;;;;;;;8.32;4.50;;;;;;;;;;5022182;28;20042;-77
2023/05/10 01:06:57;;;;;;;11.73;6.07;;;;;;;;;;5022019;28;20041;-79
2023/05/10 01:09:42;;;;;;;9.05;6.00;;;;;;;;;;5022046;28;20038;-82
2023/05/10 01:12:30;;;;;;;7.03;3.92;;;;;;;;;;5016250;28;20050;-79
2023/05/10 01:15:17;;;;;;;6.65;4.45;;;;;;;;;;5016289;28;20046;-82
2023/05/10 01:18:03;;;;;;;6.68;4.05;;;;;;;;;;5015468;28;20042;-79
2023/05/10 01:21:01;;;;;;;17.67;7.30;;;;;;;;;;5015947;28;20045;-82
2023/05/10 01:24:01;;;;;;;12.23;5.80;;;;;;;;;;5016402;28;20042;-82
2023/05/10 01:26:58;;;;;;;8.05;4.35;;;;;;;;;;5021625;28;20046;-78
2023/05/10 01:30:02;;;;;;;7.03;4.05;;;;;;;;;;5020864;28;20041;-79
2023/05/10 01:32:50;;;;;;;7.22;3.20;;;;;;;;;;5015964;28;20058;-78
2023/05/10 01:35:47;;;;;;;3.30;2.75;;;;;;;;;;5015875;28;20042;-80
2023/05/10 01:38:56;;;;;;;6.95;3.97;;;;;;;;;;5015329;28;20042;-81
2023/05/10 01:41:54;;;;;;;3.78;2.80;;;;;;;;;;5015534;28;20042;-79
2023/05/10 01:44:52;;;;;;;8.65;5.10;;;;;;;;;;5015251;28;20045;-81
2023/05/10 01:47:42;;;;;;;14.68;6.13;;;;;;;;;;5021012;28;20507;-80
2023/05/10 01:50:29;;;;;;;8.15;4.18;;;;;;;;;;5020771;28;20046;-82
2023/05/10 01:53:25;;;;;;;6.60;3.65;;;;;;;;;;5021825;28;20046;-82
2023/05/10 01:56:23;;;;;;;3.65;3.00;;;;;;;;;;5021175;28;20046;-80
2023/05/10 01:59:15;;;;;;;4.57;3.13;;;;;;;;;;5021053;28;20484;-81
2023/05/10 02:02:11;;;;;;;4.05;2.80;;;;;;;;;;5015139;28;20049;-81
2023/05/10 02:05:00;;;;;;;5.18;3.22;;;;;;;;;;5014430;28;20488;-80
2023/05/10 02:07:48;;;;;;;6.35;3.63;;;;;;;;;;5020680;28;20037;-80
2023/05/10 02:10:37;;;;;;;7.00;3.65;;;;;;;;;;5020304;28;20057;-80
2023/05/10 02:13:25;;;;;;;3.30;2.45;;;;;;;;;;5013370;28;20416;-79
2023/05/10 02:16:12;;;;;;;3.58;2.45;;;;;;;;;;5019503;28;20042;-79
2023/05/10 02:18:59;;;;;;;3.72;2.45;;;;;;;;;;5013910;28;20041;-82
2023/05/10 02:21:46;;;;;;;2.90;2.22;;;;;;;;;;5019861;28;20041;-81
2023/05/10 02:24:33;;;;;;;10.05;3.55;;;;;;;;;;5013259;28;20046;-80
2023/05/10 02:27:20;;;;;;;3.47;2.67;;;;;;;;;;5013862;28;20396;-81
2023/05/10 02:30:06;;;;;;;6.82;3.20;;;;;;;;;;5018889;28;20487;-80
2023/05/10 02:32:53;;;;;;;5.40;3.10;;;;;;;;;;5013821;28;20042;-80
2023/05/10 02:35:39;;;;;;;5.45;3.25;;;;;;;;;;5013782;28;20045;-82
2023/05/10 02:38:26;;;;;;;7.10;2.90;;;;;;;;;;5019564;28;20046;-80
2023/05/10 02:41:12;;;;;;;4.00;2.38;;;;;;;;;;5013893;28;20042;-80
2023/05/10 02:44:01;;;;;;;6.53;3.03;;;;;;;;;;5012639;28;20057;-80
2023/05/10 02:46:46;;;;;;;3.85;2.72;;;;;;;;;;5013366;28;20049;-82
2023/05/10 02:49:32;;;;;;;5.45;3.65;;;;;;;;;;5012965;28;20050;-80
2023/05/10 02:52:23;;;;;;;7.03;2.83;;;;;;;;;;5013589;28;20065;-79
2023/05/10 02:55:11;;;;;;;4.53;3.15;;;;;;;;;;5018966;28;20058;-80
2023/05/10 02:58:00;;;;;;;14.52;4.35;;;;;;;;;;5013361;28;20046;-79
2023/05/10 03:00:46;;;;;;;11.52;4.50;;;;;;;;;;5013453;28;20050;-79
2023/05/10 03:03:31;;;;;;;21.35;7.47;;;;;;;;;;5018677;28;20042;-82
2023/05/10 03:06:17;;;;;;;15.73;5.63;;;;;;;;;;5013625;28;20053;-82
2023/05/10 03:09:03;;;;;;;11.60;5.13;;;;;;;;;;5013077;28;20046;-82
2023/05/10 03:12:02;;;;;;;8.02;4.55;;;;;;;;;;5018856;28;20046;-81
2023/05/10 03:15:05;;;;;;;4.30;3.17;;;;;;;;;;5018780;28;20049;-79
2023/05/10 03:18:11;;;;;;;4.78;2.53;;;;;;;;;;5018892;28;20054;-81
2023/05/10 03:21:05;;;;;;;3.50;2.50;;;;;;;;;;5018061;28;20050;-79
2023/05/10 03:23:59;;;;;;;5.10;2.67;;;;;;;;;;5017904;28;20053;-80
2023/05/10 03:26:45;;;;;;;5.80;3.47;;;;;;;;;;5018925;28;20053;-79
2023/05/10 03:29:37;;;;;;;3.25;2.70;;;;;;;;;;5018557;28;20042;-79
2023/05/10 03:32:23;;;;;;;6.63;2.58;;;;;;;;;;5013157;28;20049;-80
2023/05/10 03:35:13;;;;;;;2.63;2.42;;;;;;;;;;5018705;28;20038;-81
2023/05/10 03:37:58;;;;;;;3.17;2.45;;;;;;;;;;5012863;28;20050;-79
2023/05/10 03:40:44;;;;;;;5.47;2.90;;;;;;;;;;5004453;28;20053;-79
2023/05/10 03:43:29;;;;;;;3.55;2.13;;;;;;;;;;5024683;28;20315;-79
2023/05/10 03:46:14;;;;;;;3.55;2.75;;;;;;;;;;5019837;28;20045;-81
2023/05/10 03:48:59;;;;;;;5.82;2.50;;;;;;;;;;5024806;28;20054;-79
2023/05/10 03:51:45;;;;;;;3.72;2.50;;;;;;;;;;5024921;28;20054;-79
2023/05/10 03:54:30;;;;;;;3.95;2.70;;;;;;;;;;5024694;28;20399;-79
2023/05/10 03:57:16;;;;;;;3.35;2.28;;;;;;;;;;5019040;28;20046;-80
2023/05/10 04:00:03;;;;;;;5.13;2.70;;;;;;;;;;5024448;28;20042;-80
2023/05/10 04:02:59;;;;;;;3.45;2.70;;;;;;;;;;5018930;28;20045;-77
2023/05/10 04:05:45;;;;;;;2.30;2.08;;;;;;;;;;5024798;28;20049;-80
2023/05/10 04:08:31;;;;;;;3.53;2.30;;;;;;;;;;5024699;28;20037;-79
2023/05/10 04:11:16;;;;;;;3.22;2.60;;;;;;;;;;5018745;28;20042;-80
2023/05/10 04:14:02;;;;;;;4.20;2.88;;;;;;;;;;5019273;28;20435;-81
2023/05/10 04:16:47;;;;;;;5.35;2.42;;;;;;;;;;5019439;28;20053;-81
2023/05/10 04:19:33;;;;;;;4.65;2.88;;;;;;;;;;5019301;28;20045;-80
2023/05/10 04:22:19;;;;;;;2.20;1.73;;;;;;;;;;5018843;28;20042;-79
2023/05/10 04:25:05;;;;;;;3.92;2.38;;;;;;;;;;5018980;28;20057;-79
2023/05/10 04:27:52;;;;;;;3.67;2.17;;;;;;;;;;5019019;28;20053;-79
2023/05/10 04:30:38;;;;;;;3.67;2.45;;;;;;;;;;5018342;28;20083;-81
2023/05/10 04:33:24;;;;;;;2.00;1.58;;;;;;;;;;5018250;28;20046;-80
2023/05/10 04:36:09;;;;;;;2.90;2.03;;;;;;;;;;5023771;28;20042;-79
2023/05/10 04:38:55;;;;;;;2.42;1.70;;;;;;;;;;5018948;28;20046;-81
2023/05/10 04:41:40;;;;;;;5.53;2.33;;;;;;;;;;5018438;28;20049;-80
2023/05/10 04:44:26;;;;;;;4.63;2.47;;;;;;;;;;5018961;28;20419;-79
2023/05/10 04:47:13;;;;;;;2.85;2.28;;;;;;;;;;5017311;28;20041;-80
2023/05/10 04:49:59;;;;;;;2.97;2.00;;;;;;;;;;5018502;28;20046;-78
2023/05/10 04:52:43;;;;;;;2.10;1.90;;;;;;;;;;5009549;28;20045;-79
2023/05/10 04:55:28;;;;;;;3.63;2.40;;;;;;;;;;5014533;28;20041;-78
2023/05/10 04:58:14;;;;;;;2.47;2.10;;;;;;;;;;5015645;28;20058;-83
2023/05/10 05:01:07;;;;;;;4.18;2.80;;;;;;;;;;5007160;28;20042;-79
2023/05/10 05:03:53;;;;;;;4.78;2.28;;;;;;;;;;5015159;28;20488;-80
2023/05/10 05:06:39;;;;;;;3.25;2.40;;;;;;;;;;5019891;28;20431;-79
2023/05/10 05:09:24;;;;;;;2.92;2.38;;;;;;;;;;5015651;28;20042;-81
2023/05/10 05:12:13;;;;;;;9.73;3.28;;;;;;;;;;5015347;28;20507;-79
2023/05/10 05:14:58;;;;;;;6.55;2.90;;;;;;;;;;5006241;28;20041;-79
2023/05/10 05:17:44;;;;;;;4.90;2.92;;;;;;;;;;5015382;28;20487;-79
2023/05/10 05:20:33;;;;;;;3.28;2.53;;;;;;;;;;5020834;28;20400;-81
2023/05/10 05:23:20;;;;;;;3.25;2.45;;;;;;;;;;5014980;28;20049;-81
2023/05/10 05:26:05;;;;;;;3.33;2.33;;;;;;;;;;5014878;28;20049;-81
2023/05/10 05:28:53;;;;;;;4.50;2.72;;;;;;;;;;5013601;28;20046;-82
2023/05/10 05:31:38;;;;;;;3.67;2.20;;;;;;;;;;5015977;28;20053;-81
2023/05/10 05:34:24;;;;;;;3.60;2.30;;;;;;;;;;5016007;28;20384;-81
2023/05/10 05:37:16;;;;;;;5.30;1.80;;;;;;;;;;5014891;28;20396;-81
2023/05/10 05:40:01;;;;;;;4.97;2.13;;;;;;;;;;5016174;28;20042;-80
2023/05/10 05:42:46;;;;;;;3.38;2.00;;;;;;;;;;5015547;28;20038;-80
2023/05/10 05:45:32;;;;;;;3.80;1.48;;;;;;;;;;5015325;28;20054;-78
2023/05/10 05:48:17;;;;;;;2.45;2.15;;;;;;;;;;5014841;28;20045;-80
2023/05/10 05:51:03;;;;;;;3.72;2.33;;;;;;;;;;5007369;28;20042;-80
2023/05/10 05:53:48;;;;;;;2.78;2.35;;;;;;;;;;5006983;28;20042;-81
2023/05/10 05:56:33;;;;;;;5.30;2.40;;;;;;;;;;5014447;28;20042;-79
2023/05/10 05:59:19;;;;;;;4.70;2.15;;;;;;;;;;5015474;28;20037;-82
2023/05/10 06:02:05;;;;;;;2.70;2.10;;;;;;;;;;5014214;28;20484;-82
2023/05/10 06:04:50;;;;;;;1.40;1.30;;;;;;;;;;5013546;28;20399;-80
2023/05/10 06:07:36;;;;;;;2.20;1.98;;;;;;;;;;5006633;28;20042;-80
2023/05/10 06:10:22;;;;;;;4.97;2.67;;;;;;;;;;5019898;28;20049;-80
2023/05/10 06:13:08;;;;;;;2.40;1.92;;;;;;;;;;5013957;28;20045;-81
2023/05/10 06:15:54;;;;;;;3.25;1.90;;;;;;;;;;5013557;28;20038;-82
2023/05/10 06:18:39;;;;;;;17.73;11.27;;;;;;;;;;5014253;28;20038;-81
2023/05/10 06:21:25;;;;;;;16.88;10.50;;;;;;;;;;5013970;28;20041;-81
2023/05/10 06:24:10;;;;;;;10.23;7.60;;;;;;;;;;5013990;28;20054;-78
2023/05/10 06:26:56;;;;;;;3.10;2.47;;;;;;;;;;5013705;28;20053;-81
2023/05/10 06:29:41;;;;;;;6.47;3.00;;;;;;;;;;5013921;28;20045;-79
2023/05/10 06:32:27;;;;;;;2.55;1.52;;;;;;;;;;5014215;28;20487;-82
2023/05/10 06:35:12;;;;;;;2.65;1.80;;;;;;;;;;5013880;28;20038;-80
2023/05/10 06:37:58;;;;;;;2.63;2.00;;;;;;;;;;5018564;28;20046;-79
2023/05/10 06:40:44;;;;;;;4.65;2.20;;;;;;;;;;5006554;28;20041;-80
2023/05/10 06:43:29;;;;;;;4.15;2.72;;;;;;;;;;5014777;28;20049;-79
2023/05/10 06:46:15;;;;;;;4.53;2.58;;;;;;;;;;5014310;28;20062;-81
2023/05/10 06:49:01;;;;;;;4.65;2.10;;;;;;;;;;5013769;28;20050;-81
2023/05/10 06:51:46;;;;;;;4.88;1.80;;;;;;;;;;5013371;28;20046;-80
2023/05/10 06:54:31;;;;;;;2.38;1.98;;;;;;;;;;5015920;28;20580;-80
2023/05/10 06:57:17;;;;;;;2.40;1.92;;;;;;;;;;5017139;28;20045;-79
2023/05/10 07:00:04;;;;;;;2.25;1.98;;;;;;;;;;5017820;28;20050;-79
2023/05/10 07:02:49;;;;;;;3.88;2.70;;;;;;;;;;5018523;28;20391;-82
2023/05/10 07:05:35;;;;;;;2.92;2.20;;;;;;;;;;5019780;28;20050;-83
2023/05/10 07:08:20;;;;;;;4.65;2.80;;;;;;;;;;5020733;28;20472;-84
2023/05/10 07:11:12;;;;;;;2.80;1.90;;;;;;;;;;5020343;28;20049;-83
2023/05/10 07:13:58;;;;;;;2.80;1.98;;;;;;;;;;5013338;28;20065;-83
2023/05/10 07:16:44;;;;;;;3.47;1.92;;;;;;;;;;5013341;28;20495;-83
2023/05/10 07:19:29;;;;;;;2.40;1.65;;;;;;;;;;5013033;28;20046;-81
2023/05/10 07:22:15;;;;;;;2.53;1.90;;;;;;;;;;5012737;28;20046;-86
2023/05/10 07:25:00;;;;;;;2.05;1.85;;;;;;;;;;5013010;28;20050;-82
2023/05/10 07:27:48;;;;;;;4.97;1.42;;;;;;;;;;5005436;28;20045;-85
2023/05/10 07:30:33;;;;;;;3.10;1.90;;;;;;;;;;5011991;28;20375;-84
2023/05/10 07:33:19;;;;;;;4.57;2.22;;;;;;;;;;5012764;28;20041;-81
2023/05/10 07:36:05;;;;;;;5.05;1.90;;;;;;;;;;5013913;28;20042;-84
2023/05/10 07:38:50;;;;;;;2.20;1.67;;;;;;;;;;5012946;28;20046;-84
2023/05/10 07:41:37;;;;;;;4.30;2.20;;;;;;;;;;5013438;28;20054;-83
2023/05/10 07:44:22;;;;;;;3.80;2.33;;;;;;;;;;5013492;28;20050;-81
2023/05/10 07:47:08;;;;;;;2.10;1.65;;;;;;;;;;5013719;28;20064;-81
2023/05/10 07:49:53;;;;;;;4.93;1.67;;;;;;;;;;5013939;28;20042;-80
2023/05/10 07:52:39;;;;;;;3.47;2.15;;;;;;;;;;5013455;28;20047;-83
2023/05/10 07:55:24;;;;;;;3.90;2.47;;;;;;;;;;5018158;28;20484;-82
2023/05/10 07:58:10;;;;;;;5.82;2.35;;;;;;;;;;5011598;28;20483;-82
2023/05/10 08:00:56;;;;;;;3.75;2.38;;;;;;;;;;5012386;28;20049;-84
2023/05/10 08:03:41;;;;;;;2.55;2.00;;;;;;;;;;5012052;28;20407;-82
2023/05/10 08:06:29;;;;;;;2.17;1.85;;;;;;;;;;5012557;28;20042;-84
2023/05/10 08:09:16;;;;;;;3.70;2.00;;;;;;;;;;5012717;28;20403;-81
2023/05/10 08:12:01;;;;;;;1.67;1.38;;;;;;;;;;5013637;28;20054;-83
2023/05/10 08:14:46;;;;;;;2.08;1.50;;;;;;;;;;5012225;28;20411;-83
2023/05/10 08:17:32;;;;;;;4.88;2.35;;;;;;;;;;5012168;28;20045;-82
2023/05/10 08:20:18;;;;;;;2.85;1.80;;;;;;;;;;5011306;28;20050;-83
2023/05/10 08:23:04;;;;;;;5.80;2.05;;;;;;;;;;5012960;28;20488;-80
2023/05/10 08:25:49;;;;;;;3.38;2.13;;;;;;;;;;5012768;28;20050;-83
2023/05/10 08:28:34;;;;;;;3.72;1.85;;;;;;;;;;5013220;28;20484;-84
2023/05/10 08:31:20;;;;;;;3.58;2.42;;;;;;;;;;5021668;28;20049;-79
2023/05/10 08:34:06;;;;;;;4.72;2.03;;;;;;;;;;5016638;28;20046;-78
2023/05/10 08:36:51;;;;;;;2.97;1.95;;;;;;;;;;5016791;28;20037;-82
2023/05/10 08:39:37;;;;;;;5.68;3.50;;;;;;;;;;5016961;28;20042;-81
2023/05/10 08:42:28;;;;;;;4.20;2.78;;;;;;;;;;5016010;28;20054;-80
2023/05/10 08:45:14;;;;;;;6.25;4.43;;;;;;;;;;5016543;28;20444;-79
2023/05/10 08:48:01;;;;;;;3.38;2.28;;;;;;;;;;5016544;28;20050;-81
2023/05/10 08:50:48;;;;;;;6.55;4.10;;;;;;;;;;5015904;28;20050;-82
2023/05/10 08:53:36;;;;;;;2.45;1.88;;;;;;;;;;5015635;28;20050;-82
2023/05/10 08:56:23;;;;;;;5.35;3.78;;;;;;;;;;5015559;28;20050;-79
2023/05/10 08:59:09;;;;;;;18.60;11.60;;;;;;;;;;5016806;28;20042;-80
2023/05/10 09:01:57;;;;;;;8.45;5.32;;;;;;;;;;5016809;28;20042;-76
2023/05/10 09:04:42;;;;;;;8.55;3.88;;;;;;;;;;5016102;28;20046;-77
2023/05/10 09:07:28;;;;;;;3.65;2.47;;;;;;;;;;5015537;28;20050;-78
2023/05/10 09:10:14;;;;;;;2.50;1.70;;;;;;;;;;5016267;28;20054;-77
2023/05/10 09:13:00;;;;;;;6.28;3.60;;;;;;;;;;5015187;28;20046;-78
2023/05/10 09:15:47;;;;;;;5.63;3.72;;;;;;;;;;5015501;28;20046;-76
2023/05/10 09:18:32;;;;;;;4.57;3.15;;;;;;;;;;5015202;28;20058;-76
2023/05/10 09:21:19;;;;;;;3.72;2.50;;;;;;;;;;5015151;28;20050;-77
2023/05/10 09:24:06;;;;;;;5.93;2.55;;;;;;;;;;5014164;28;20057;-77
2023/05/10 09:26:53;;;;;;;4.78;2.75;;;;;;;;;;5015104;28;20046;-76
2023/05/10 09:29:41;;;;;;;2.47;1.83;;;;;;;;;;5015122;28;20050;-74
2023/05/10 09:32:45;;;;;;;5.38;3.15;;;;;;;;;;5015103;28;20042;-76
2023/05/10 09:35:32;;;;;;;1.53;1.43;;;;;;;;;;5015002;28;20054;-75
2023/05/10 09:38:18;;;;;;;1.98;1.45;;;;;;;;;;5014767;28;20279;-77
2023/05/10 09:41:04;;;;;;;1.48;1.38;;;;;;;;;;5014562;28;20042;-76
2023/05/10 09:43:49;;;;;;;8.25;2.40;;;;;;;;;;5014342;28;20041;-77
2023/05/10 09:46:35;;;;;;;1.65;1.45;;;;;;;;;;5050210;22;20016;-76
2023/05/10 09:49:22;;;;;;;1.52;1.38;;;;;;;;;;5054895;28;20033;-77
2023/05/10 09:52:07;;;;;;;2.17;1.70;;;;;;;;;;5054104;28;20399;-77
2023/05/10 09:54:54;;;;;;;7.57;3.55;;;;;;;;;;5053981;28;20052;-76
2023/05/10 09:57:40;;;;;;;4.10;2.47;;;;;;;;;;5055135;28;20036;-77
2023/05/10 10:00:27;;;;;;;9.50;3.50;;;;;;;;;;5054793;28;20482;-77
2023/05/10 10:03:15;;;;;;;11.38;5.85;;;;;;;;;;5053954;28;20049;-78
2023/05/10 10:06:01;;;;;;;4.30;2.97;;;;;;;;;;5046607;28;20394;-77
2023/05/10 10:08:46;;;;;;;2.80;1.85;;;;;;;;;;5054444;28;20052;-78
2023/05/10 10:11:34;;;;;;;7.45;1.98;;;;;;;;;;5053343;28;20509;-77
2023/05/10 10:14:21;;;;;;;4.10;2.13;;;;;;;;;;5054845;28;20049;-77
2023/05/10 10:17:08;;;;;;;5.03;2.13;;;;;;;;;;5053969;28;20049;-78
2023/05/10 10:19:54;;;;;;;4.70;3.15;;;;;;;;;;5053861;28;20482;-76
2023/05/10 10:22:39;;;;;;;6.43;3.92;;;;;;;;;;5053614;28;20052;-78
2023/05/10 10:25:25;;;;;;;14.95;8.52;;;;;;;;;;5055004;28;20045;-79
2023/05/10 10:28:34;;;;;;;3.88;1.27;;;;;;;;;;5053536;28;20391;-77
2023/05/10 10:31:34;;;;;;;39.17;17.73;;;;;;;;;;5054532;28;20048;-77
2023/05/10 10:34:28;;;;;;;22.08;9.63;;;;;;;;;;5053102;28;20044;-77
2023/05/10 10:37:13;;;;;;;7.20;4.38;;;;;;;;;;5054076;28;20053;-79
2023/05/10 10:39:59;;;;;;;5.97;4.22;;;;;;;;;;5038493;28;20422;-79
2023/05/10 10:42:49;;;;;;;10.32;6.07;;;;;;;;;;5053301;28;20429;-78
2023/05/10 10:45:39;;;;;;;1.58;1.38;;;;;;;;;;5053264;28;20045;-77
2023/05/10 10:48:26;;;;;;;5.15;3.47;;;;;;;;;;5039812;28;20041;-78
2023/05/10 10:51:13;;;;;;;6.28;2.70;;;;;;;;;;5053500;28;20053;-78
2023/05/10 10:54:11;;;;;;;2.10;1.58;;;;;;;;;;5054413;28;20053;-78
2023/05/10 10:57:14;;;;;;;2.47;1.88;;;;;;;;;;5053833;28;20049;-77
2023/05/10 11:00:32;;;;;;;4.90;2.67;;;;;;;;;;5053966;28;20037;-79
2023/05/10 11:03:20;;;;;;;5.05;3.63;;;;;;;;;;5060570;28;20037;-77
2023/05/10 11:06:07;;;;;;;3.03;2.53;;;;;;;;;;5054043;28;20040;-77
2023/05/10 11:08:52;;;;;;;5.68;4.43;;;;;;;;;;5054342;28;20045;-78
2023/05/10 11:11:54;;;;;;;2.60;2.15;;;;;;;;;;5053673;28;20037;-78
2023/05/10 11:14:41;;;;;;;3.38;2.28;;;;;;;;;;5053818;28;20049;-78
2023/05/10 11:17:30;;;;;;;6.55;2.50;;;;;;;;;;5053484;28;20049;-78
2023/05/10 11:20:22;;;;;;;5.95;2.20;;;;;;;;;;5053741;28;20409;-78
2023/05/10 11:23:13;;;;;;;2.58;2.17;;;;;;;;;;5053297;28;20483;-78
2023/05/10 11:26:00;;;;;;;3.75;2.55;;;;;;;;;;5053484;28;20491;-79
2023/05/10 11:28:47;;;;;;;2.60;2.10;;;;;;;;;;5053229;28;20049;-78
2023/05/10 11:31:33;;;;;;;5.78;2.35;;;;;;;;;;5053321;28;20398;-77
2023/05/10 11:34:35;;;;;;;4.20;3.05;;;;;;;;;;5053322;28;20431;-78
2023/05/10 11:37:20;;;;;;;4.82;2.22;;;;;;;;;;5053444;28;20045;-78
2023/05/10 11:40:07;;;;;;;4.28;2.40;;;;;;;;;;5053613;28;20037;-78
2023/05/10 11:42:56;;;;;;;6.50;2.08;;;;;;;;;;5053478;28;20041;-77
2023/05/10 11:45:41;;;;;;;7.95;2.08;;;;;;;;;;5053193;28;20041;-78
2023/05/10 11:48:29;;;;;;;6.03;2.22;;;;;;;;;;5053086;28;20478;-78
2023/05/10 11:51:14;;;;;;;3.30;2.05;;;;;;;;;;5045178;28;20053;-77
2023/05/10 11:54:00;;;;;;;3.75;2.50;;;;;;;;;;5053193;28;20049;-78
2023/05/10 11:56:45;;;;;;;3.35;1.83;;;;;;;;;;5053362;28;20463;-78
2023/05/10 11:59:31;;;;;;;3.30;2.30;;;;;;;;;;5037959;28;20390;-79
2023/05/10 12:02:16;;;;;;;4.78;2.72;;;;;;;;;;5053576;28;20037;-77
2023/05/10 12:05:06;;;;;;;2.80;2.08;;;;;;;;;;5057346;28;20405;-79
2023/05/10 12:07:53;;;;;;;4.30;2.08;;;;;;;;;;5035178;28;20041;-77
2023/05/10 12:10:38;;;;;;;2.97;2.33;;;;;;;;;;5057235;28;20049;-78
2023/05/10 12:13:24;;;;;;;5.78;2.78;;;;;;;;;;5056931;28;20049;-77
2023/05/10 12:16:18;;;;;;;8.93;4.25;;;;;;;;;;5057095;28;20406;-78
2023/05/10 12:19:03;;;;;;;9.20;4.95;;;;;;;;;;5056256;28;20049;-79
2023/05/10 12:21:48;;;;;;;4.55;2.47;;;;;;;;;;5041808;28;20049;-78
2023/05/10 12:24:44;;;;;;;5.75;2.53;;;;;;;;;;5055999;28;20041;-77
2023/05/10 12:27:32;;;;;;;3.90;2.65;;;;;;;;;;5056417;28;20041;-77
2023/05/10 12:30:25;;;;;;;4.65;1.92;;;;;;;;;;5056583;28;20037;-77
2023/05/10 12:33:12;;;;;;;5.22;3.25;;;;;;;;;;5056801;28;20037;-78
2023/05/10 12:35:59;;;;;;;3.70;2.40;;;;;;;;;;5055967;28;20037;-79
2023/05/10 12:38:48;;;;;;;3.72;2.30;;;;;;;;;;5056315;28;20049;-79
2023/05/10 12:41:34;;;;;;;5.28;2.90;;;;;;;;;;5056361;28;20041;-83
2023/05/10 12:44:20;;;;;;;4.68;2.85;;;;;;;;;;5056211;28;20053;-81
2023/05/10 12:47:06;;;;;;;5.13;2.20;;;;;;;;;;5056407;28;20045;-80
2023/05/10 12:49:51;;;;;;;7.03;2.90;;;;;;;;;;5056129;28;20053;-77
2023/05/10 12:52:37;;;;;;;6.82;2.30;;;;;;;;;;5056610;28;20398;-76
2023/05/10 12:55:23;;;;;;;3.55;2.00;;;;;;;;;;5056510;28;20048;-76
2023/05/10 12:58:08;;;;;;;9.77;2.25;;;;;;;;;;5055988;28;20049;-78
2023/05/10 13:00:54;;;;;;;3.88;2.28;;;;;;;;;;5056000;28;20041;-79
2023/05/10 13:03:39;;;;;;;4.22;1.90;;;;;;;;;;5056153;28;20202;-77
2023/05/10 13:06:25;;;;;;;3.38;1.98;;;;;;;;;;5055798;28;20036;-77
2023/05/10 13:09:10;;;;;;;5.97;2.90;;;;;;;;;;5056145;28;20045;-78
2023/05/10 13:11:56;;;;;;;8.93;4.15;;;;;;;;;;5055706;28;20037;-77
2023/05/10 13:14:42;;;;;;;4.38;2.35;;;;;;;;;;5055146;28;20044;-77
2023/05/10 13:17:27;;;;;;;7.45;2.20;;;;;;;;;;5055304;28;20041;-77
2023/05/10 13:20:13;;;;;;;5.53;3.33;;;;;;;;;;5055944;28;20036;-77
2023/05/10 13:22:58;;;;;;;2.75;2.28;;;;;;;;;;5055505;28;20040;-79
2023/05/10 13:25:44;;;;;;;4.07;2.80;;;;;;;;;;5055060;28;20403;-77
2023/05/10 13:28:30;;;;;;;2.95;2.28;;;;;;;;;;5054627;28;20049;-79
2023/05/10 13:31:15;;;;;;;5.22;2.97;;;;;;;;;;5055524;28;20044;-79
2023/05/10 13:34:01;;;;;;;5.60;2.95;;;;;;;;;;5039651;28;20053;-79
2023/05/10 13:36:47;;;;;;;4.05;2.80;;;;;;;;;;5055128;28;20475;-79
2023/05/10 13:39:34;;;;;;;6.95;2.88;;;;;;;;;;5055296;28;20045;-78
2023/05/10 13:42:20;;;;;;;3.80;2.85;;;;;;;;;;5054993;28;20041;-77
2023/05/10 13:45:05;;;;;;;2.03;1.73;;;;;;;;;;5055258;28;20049;-78
2023/05/10 13:47:51;;;;;;;4.38;2.70;;;;;;;;;;5055020;28;20045;-78
2023/05/10 13:50:38;;;;;;;6.82;2.92;;;;;;;;;;5054945;28;20045;-79
2023/05/10 13:53:22;;;;;;;2.90;2.15;;;;;;;;;;5055383;28;20045;-78
2023/05/10 13:56:08;;;;;;;4.10;2.17;;;;;;;;;;5055250;28;20049;-77
2023/05/10 13:58:54;;;;;;;3.78;2.13;;;;;;;;;;5055251;28;20490;-78
2023/05/10 14:01:40;;;;;;;7.72;2.83;;;;;;;;;;5054830;28;20475;-78
2023/05/10 14:04:26;;;;;;;5.65;3.50;;;;;;;;;;5054807;28;20041;-77
2023/05/10 14:07:11;;;;;;;4.88;2.95;;;;;;;;;;5054706;28;20044;-77
2023/05/10 14:09:57;;;;;;;3.25;2.30;;;;;;;;;;5053399;28;20041;-78
2023/05/10 14:12:43;;;;;;;3.42;2.28;;;;;;;;;;5054439;28;20049;-78
2023/05/10 14:15:28;;;;;;;8.82;2.25;;;;;;;;;;5054545;28;20049;-76
2023/05/10 14:18:14;;;;;;;4.32;3.15;;;;;;;;;;5054344;28;20053;-76
2023/05/10 14:20:59;;;;;;;4.20;2.97;;;;;;;;;;5054698;28;20041;-77
2023/05/10 14:23:45;;;;;;;4.47;2.95;;;;;;;;;;5054759;28;20041;-77
2023/05/10 14:26:31;;;;;;;3.58;2.80;;;;;;;;;;5053717;28;20053;-77
2023/05/10 14:29:17;;;;;;;2.83;2.25;;;;;;;;;;5054562;28;20049;-75
2023/05/10 14:32:02;;;;;;;4.07;2.05;;;;;;;;;;5054600;28;20049;-76
2023/05/10 14:34:48;;;;;;;3.65;2.13;;;;;;;;;;5054425;28;20049;-77
2023/05/10 14:37:33;;;;;;;3.80;2.60;;;;;;;;;;5054673;28;20048;-76
2023/05/10 14:40:19;;;;;;;6.50;3.92;;;;;;;;;;5054241;28;20049;-77
2023/05/10 14:43:04;;;;;;;3.90;2.70;;;;;;;;;;5054171;28;20041;-78
2023/05/10 14:45:50;;;;;;;4.03;2.83;;;;;;;;;;5054020;28;20044;-76
2023/05/10 14:48:35;;;;;;;3.00;2.15;;;;;;;;;;5038155;28;20045;-78
2023/05/10 14:51:21;;;;;;;5.47;2.45;;;;;;;;;;5053932;28;20057;-78
2023/05/10 14:54:07;;;;;;;4.70;2.60;;;;;;;;;;5053909;28;20048;-77
2023/05/10 14:56:52;;;;;;;4.47;2.88;;;;;;;;;;5054181;28;20045;-77
2023/05/10 14:59:37;;;;;;;6.28;3.78;;;;;;;;;;5053848;28;20053;-78
2023/05/10 15:02:22;;;;;;;6.32;3.03;;;;;;;;;;5053905;28;20053;-76
2023/05/10 15:05:08;;;;;;;4.63;2.60;;;;;;;;;;5052969;28;20487;-76
2023/05/10 15:07:53;;;;;;;4.35;3.00;;;;;;;;;;5053008;28;20045;-77
2023/05/10 15:10:39;;;;;;;6.45;3.33;;;;;;;;;;5053440;28;20049;-77
2023/05/10 15:13:25;;;;;;;7.82;2.60;;;;;;;;;;5053665;28;20037;-77
2023/05/10 15:16:10;;;;;;;7.70;2.72;;;;;;;;;;5053528;28;20036;-77
2023/05/10 15:18:56;;;;;;;2.60;2.05;;;;;;;;;;5053849;28;20041;-78
2023/05/10 15:21:44;;;;;;;7.88;2.70;;;;;;;;;;5053266;28;20045;-78
2023/05/10 15:24:29;;;;;;;6.13;2.72;;;;;;;;;;5053504;28;20041;-77
2023/05/10 15:27:15;;;;;;;4.18;2.70;;;;;;;;;;5053776;28;20486;-77
2023/05/10 15:30:00;;;;;;;4.00;2.90;;;;;;;;;;5053344;28;20049;-76
2023/05/10 15:32:46;;;;;;;6.30;2.67;;;;;;;;;;5053607;28;20037;-78
2023/05/10 15:35:32;;;;;;;5.10;2.60;;;;;;;;;;5053250;28;20052;-77
2023/05/10 15:38:17;;;;;;;4.05;2.63;;;;;;;;;;5044753;28;20401;-77
2023/05/10 15:41:02;;;;;;;2.90;1.92;;;;;;;;;;5052939;28;20041;-77
2023/05/10 15:43:47;;;;;;;4.78;2.80;;;;;;;;;;5053140;28;20037;-78
2023/05/10 15:46:33;;;;;;;4.32;3.13;;;;;;;;;;5052949;28;20045;-77
2023/05/10 15:49:18;;;;;;;8.85;3.35;;;;;;;;;;5052573;28;20045;-77
2023/05/10 15:52:04;;;;;;;5.30;3.05;;;;;;;;;;5051990;28;20045;-79
2023/05/10 15:54:50;;;;;;;4.93;2.85;;;;;;;;;;5053141;28;20048;-79
2023/05/10 15:57:35;;;;;;;4.18;2.95;;;;;;;;;;5052692;28;20044;-79
2023/05/10 16:00:21;;;;;;;7.20;3.28;;;;;;;;;;5052504;28;20056;-76
2023/05/10 16:03:07;;;;;;;4.05;2.95;;;;;;;;;;5053322;28;20049;-77
2023/05/10 16:05:52;;;;;;;6.75;3.20;;;;;;;;;;5052638;28;20052;-77
2023/05/10 16:08:38;;;;;;;6.18;3.10;;;;;;;;;;5053249;28;20045;-77
2023/05/10 16:11:23;;;;;;;6.25;3.97;;;;;;;;;;5053420;28;20041;-78
2023/05/10 16:14:09;;;;;;;5.90;3.25;;;;;;;;;;5053133;28;20041;-78
2023/05/10 16:16:55;;;;;;;5.15;2.83;;;;;;;;;;5059489;28;20045;-76
2023/05/10 16:19:40;;;;;;;3.92;2.55;;;;;;;;;;5052485;28;20490;-77
2023/05/10 16:22:28;;;;;;;10.57;3.45;;;;;;;;;;5052891;28;20040;-77
2023/05/10 16:25:14;;;;;;;4.57;2.90;;;;;;;;;;5052675;28;20041;-76
2023/05/10 16:28:00;;;;;;;4.97;3.10;;;;;;;;;;5052652;28;20049;-77
2023/05/10 16:30:46;;;;;;;2.72;2.35;;;;;;;;;;5052205;28;20041;-77
2023/05/10 16:33:31;;;;;;;2.90;2.50;;;;;;;;;;5050549;28;20049;-79
2023/05/10 16:36:17;;;;;;;6.53;3.70;;;;;;;;;;5051877;28;20045;-79
2023/05/10 16:39:03;;;;;;;3.58;2.42;;;;;;;;;;5052733;28;20479;-80